الصفحة الرئيسية
METAR-TAF:

METAR-TAF

مطار :

Mae Hong Son, تايلاند

دائرة عرض: 19-18N, خط طول: 097-50E, ارتفاع: 267 متر

مراقبة الطقس الحالي

تاريخ ووقت الإصدار 9ساعات و 40 دقيقة قبل الساعة 12:00UTC
رياح هادئة
درجة الحرارة 26°درجة مئوية
الرطوبة 94%
ضغط 1003 hPa
الرؤية: 8000 متر
غيوم قليلة على ارتفاع 1200 قدم
غيوم مفككة على ارتفاع 2500 قدم

METAR: VTCH 251200Z 00000KT 8000 FEW012 BKN025 26/25 Q1003

زمن: 04:40 (21:40 UTC)

توقعات

تاريخ ووقت الإصدار 4ساعات و 40 دقيقة قبل الساعة 17:00UTC
التوقعات صالحة من25 الساعة 18 UTC إلى 26 الساعة 18 UTC
ريح 5 عقدة من الجنوب/الجنوب الشرقي
الرؤية 10 كم أو أكثر
غيوم متفرقة على ارتفاع 2500 قدم
مؤقت
من 26 الساعة 06 UTC إلى 26 الساعة 12 UTC
ريح 15 عقدة من الغرب/الشمال الغربي تتزايد حتى 25 عقدة
الرؤية: 4000 متر
غيوم قليلة على ارتفاع 2000 قدم, مزنة ركامية.
غيوم مفككة على ارتفاع 2500 قدم
عاصفة رعدية, مطر

TAF: VTCH 251700Z 2518/2618 15005KT 9999 SCT025 TEMPO 2606/2612 29015G25KT 4000 TSRA FEW020CB BKN025

أرصاد الطقس والتوقعات من أكثر من 4000 مطار (تقارير الطقس للمطار METAR والتنبؤ بالطقس بالمطارTAF).

المحطات المتاحة هي النقط الصفراء والحمراء على الخريطة.

حرك المؤشر فوق النقطة لمعرفة اسم المحطة.

ثم انقر لمعرفة أرصاد وتوقعات الطقس.

لتغيير الخارطة: اضغط على الأزرار الخضراء مع رمز الصليب الأسود للتكبير. على الزر الأخضر مع شرطة للتصغير، أو على الأسهم الخضراء للخرائط المجاورة.


METAR-TAF: